Hiland, WY (82638)

5:54 PM MDT on July 30, 2014 (GMT -0600)
Natrona County International (KCPR) Elev 5289 ft | 42.90 °N, 106.47 °W | Change Station

Current weather conditions updated 1 hour ago

Partly Cloudy
Partly Cloudy
78 °F
Feels Like 78 °F
N
9
Wind Variable Wind from SE

Tomorrow is forecast to be Warmer than today.

Today
High -- | Low -- °F
--% Chance of Precip.
Yesterday
High -- | Low -- °F
Precip. -- in
5:57 AM 8:33 PM
Waxing Crescent, 14% visible
Pressure 30.10 in
Visibility 10.0 miles
Clouds Few 8000 ft
Dew Point 41 °F
Humidity 27%
Rainfall 0.00 in
Snow Depth Not available.
UV 5 out of 12
Pollen 5.00 out of 12
Air Quality Not available.
Flu Activity Not available.
METAR KCPR 302253Z 13008KT 10SM FEW080 26/05 A3027 RMK AO2 SLP193 T02560050

More Conditions Fewer Conditions

Pressure 30.10 in
Visibility 10.0 miles
Clouds Few 8000 ft
Dew Point 41 °F
Humidity 27%
Rainfall 0.00 in
Snow Depth Not available.
UV 5 out of 12
Pollen 5.00 out of 12
Air Quality Not available.
Flu Activity Not available.
METAR KCPR 302253Z 13008KT 10SM FEW080 26/05 A3027 RMK AO2 SLP193 T02560050

More Conditions Fewer Conditions

10-Day Weather Forecast

Almanac

Astronomy

Jul. 30, 2014 Rise Set
Actual Time 5:57 AM MDT 8:33 PM MDT
Civil Twilight 5:25 AM MDT 9:05 PM MDT
Nautical Twilight 4:44 AM MDT 9:46 PM MDT
Astronomical Twilight 3:58 AM MDT 10:31 PM MDT
Moon 9:39 AM MDT 10:09 PM MDT
Length of Visible Light 15h 40m
Length of Day
14h 35m
Tomorrow will be 2m 12s shorter.
Waxing Crescent, 14% of the Moon is Illuminated
Today
Waxing Crescent
Aug 3
First Quarter
Aug 10
Full
Aug 17
Last Quarter
Aug 25
New

Today's Extremes

State Highs State Lows

Community

WunderPhotos

Upload Photos

1,739,257 photos uploaded!

Nearby

Snow Depth

Station Depth Elevation
Casper Mountain 0 in 7850 ft
Big Sandy Opening 0 in 9080 ft
Sage Creek Basin 0 in 7850 ft
Sand Lake 0 in 10050 ft
South Brush Creek 0 in 8440 ft

Earthquake Activity

City Distance Mag. Time & Date
No recent earthquake activity has been reported nearby.
Minimum magnitude displayed is 2.5.

Coastal Water Temperatures

Place Temperature
No Stations Reporting

Nearby Weather Stations

There are no personal weather stations in this area.